Time;durP1;ratioP1;P1;durP2;ratioP2;P2;SDS_P1;SDS_P2;PMS_P1;PMS_P2;Temp;Humidity;BMP_temperature;BMP_pressure;BME280_temperature;BME280_humidity;BME280_pressure;Samples;Min_cycle;Max_cycle;Signal;HPM_P1;HPM_P2
2021/10/03 00:00:17;;;;;;;9.60;5.43;;;;;;;;;;4978290;28;20191;-87
2021/10/03 00:03:24;;;;;;;10.33;6.00;;;;;;;;;;4954730;28;20214;-87
2021/10/03 00:06:29;;;;;;;9.27;6.30;;;;;;;;;;4966386;28;20199;-86
2021/10/03 00:09:34;;;;;;;9.87;6.50;;;;;;;;;;4955195;28;20203;-86
2021/10/03 00:12:39;;;;;;;8.17;5.43;;;;;;;;;;4977020;28;20195;-86
2021/10/03 00:15:44;;;;;;;8.57;6.20;;;;;;;;;;4966264;28;20186;-86
2021/10/03 00:18:48;;;;;;;11.80;6.03;;;;;;;;;;4958376;29;20184;-86
2021/10/03 00:21:52;;;;;;;7.13;6.43;;;;;;;;;;4952669;28;20206;-86
2021/10/03 00:24:57;;;;;;;9.27;6.43;;;;;;;;;;4965396;28;20219;-87
2021/10/03 00:28:03;;;;;;;7.90;6.30;;;;;;;;;;4976327;28;20226;-87
2021/10/03 00:31:07;;;;;;;9.57;6.47;;;;;;;;;;4977276;28;20183;-86
2021/10/03 00:34:11;;;;;;;7.57;5.83;;;;;;;;;;4963533;28;20226;-87
2021/10/03 00:37:16;;;;;;;7.50;6.57;;;;;;;;;;4955936;28;20195;-87
2021/10/03 00:40:21;;;;;;;7.33;6.43;;;;;;;;;;4966388;28;20183;-86
2021/10/03 00:43:26;;;;;;;7.67;6.43;;;;;;;;;;4965427;28;20219;-86
2021/10/03 00:46:30;;;;;;;8.03;5.83;;;;;;;;;;4977865;28;20202;-87
2021/10/03 00:49:36;;;;;;;8.20;6.30;;;;;;;;;;4954492;28;20187;-86
2021/10/03 00:52:45;;;;;;;8.47;6.10;;;;;;;;;;4965557;28;20198;-86
2021/10/03 00:55:49;;;;;;;7.40;6.40;;;;;;;;;;4965797;28;20183;-86
2021/10/03 00:58:54;;;;;;;7.97;5.93;;;;;;;;;;4954606;28;20174;-86
2021/10/03 01:01:59;;;;;;;11.07;6.30;;;;;;;;;;4976684;28;20179;-86
2021/10/03 01:05:07;;;;;;;8.20;6.17;;;;;;;;;;4954244;28;20222;-86
2021/10/03 01:08:11;;;;;;;6.83;5.43;;;;;;;;;;4964797;28;20218;-87
2021/10/03 01:11:16;;;;;;;7.57;5.83;;;;;;;;;;4964769;28;20547;-87
2021/10/03 01:14:20;;;;;;;7.87;5.60;;;;;;;;;;4953949;28;20222;-87
2021/10/03 01:17:24;;;;;;;7.07;5.77;;;;;;;;;;4964631;28;20191;-87
2021/10/03 01:20:32;;;;;;;9.87;5.60;;;;;;;;;;4975573;28;20195;-87
2021/10/03 01:23:36;;;;;;;6.50;5.90;;;;;;;;;;4953908;28;20214;-86
2021/10/03 01:26:41;;;;;;;8.10;6.27;;;;;;;;;;4964816;28;20187;-86
2021/10/03 01:29:45;;;;;;;8.20;5.90;;;;;;;;;;4954009;28;20175;-86
2021/10/03 01:32:49;;;;;;;9.30;6.60;;;;;;;;;;4957605;29;20204;-88
2021/10/03 01:35:54;;;;;;;7.83;6.00;;;;;;;;;;4935649;28;20206;-87
2021/10/03 01:38:58;;;;;;;9.97;6.70;;;;;;;;;;4935137;29;20203;-87
2021/10/03 01:42:03;;;;;;;7.03;5.53;;;;;;;;;;4954896;28;20198;-86
2021/10/03 01:45:10;;;;;;;7.23;6.00;;;;;;;;;;4964836;28;20685;-86
2021/10/03 01:48:17;;;;;;;7.00;6.00;;;;;;;;;;4975163;28;20226;-86
2021/10/03 01:51:21;;;;;;;7.83;5.67;;;;;;;;;;4964315;28;20210;-87
2021/10/03 01:54:25;;;;;;;6.53;5.67;;;;;;;;;;4964316;28;20681;-86
2021/10/03 01:57:30;;;;;;;9.27;6.00;;;;;;;;;;4975435;28;20198;-87
2021/10/03 02:00:36;;;;;;;7.70;5.37;;;;;;;;;;4956383;29;20195;-88
2021/10/03 02:03:40;;;;;;;7.13;5.63;;;;;;;;;;4955548;28;20223;-87
2021/10/03 02:06:47;;;;;;;7.40;5.97;;;;;;;;;;4964748;28;20654;-87
2021/10/03 02:09:50;;;;;;;8.70;5.80;;;;;;;;;;4975112;28;20198;-87
2021/10/03 02:12:55;;;;;;;7.47;5.60;;;;;;;;;;4964113;28;20210;-86
2021/10/03 02:16:01;;;;;;;8.23;5.90;;;;;;;;;;4964449;28;20518;-86
2021/10/03 02:19:06;;;;;;;8.47;6.40;;;;;;;;;;4963925;28;20183;-87
2021/10/03 02:22:11;;;;;;;10.33;6.00;;;;;;;;;;4952545;28;20531;-86
2021/10/03 02:25:16;;;;;;;6.10;5.30;;;;;;;;;;4974815;28;20226;-86
2021/10/03 02:28:22;;;;;;;9.07;6.23;;;;;;;;;;4955142;29;20683;-87
2021/10/03 02:31:26;;;;;;;6.93;5.37;;;;;;;;;;4958321;28;20666;-86
2021/10/03 02:34:30;;;;;;;6.33;5.10;;;;;;;;;;4963830;28;20222;-87
2021/10/03 02:37:36;;;;;;;7.63;5.53;;;;;;;;;;4954785;29;20203;-86
2021/10/03 02:40:43;;;;;;;8.57;5.93;;;;;;;;;;4955645;29;20175;-86
2021/10/03 02:43:52;;;;;;;7.47;5.00;;;;;;;;;;4944470;28;20222;-87
2021/10/03 02:46:56;;;;;;;6.70;5.57;;;;;;;;;;4961666;28;20191;-87
2021/10/03 02:50:01;;;;;;;7.97;5.27;;;;;;;;;;4952346;28;20187;-86
2021/10/03 02:53:09;;;;;;;7.47;5.93;;;;;;;;;;4963158;28;20190;-87
2021/10/03 02:56:15;;;;;;;7.40;5.67;;;;;;;;;;4963442;28;20187;-87
2021/10/03 02:59:18;;;;;;;6.33;5.00;;;;;;;;;;4963926;28;20515;-87
2021/10/03 03:02:22;;;;;;;8.20;6.00;;;;;;;;;;4963011;28;20206;-87
2021/10/03 03:05:27;;;;;;;7.37;5.60;;;;;;;;;;4974644;28;20175;-87
2021/10/03 03:08:31;;;;;;;7.30;5.60;;;;;;;;;;4962720;28;20214;-87
2021/10/03 03:11:35;;;;;;;6.87;5.43;;;;;;;;;;4964194;28;20186;-87
2021/10/03 03:14:39;;;;;;;7.30;5.37;;;;;;;;;;4965054;28;20226;-88
2021/10/03 03:17:44;;;;;;;5.40;4.90;;;;;;;;;;4974523;28;20194;-87
2021/10/03 03:20:48;;;;;;;6.03;5.37;;;;;;;;;;4963116;28;20194;-86
2021/10/03 03:23:53;;;;;;;5.43;4.90;;;;;;;;;;4963294;28;20218;-87
2021/10/03 03:26:57;;;;;;;10.97;5.23;;;;;;;;;;4953452;28;20198;-87
2021/10/03 03:30:02;;;;;;;5.57;4.70;;;;;;;;;;4964204;28;20682;-86
2021/10/03 03:33:07;;;;;;;6.10;5.37;;;;;;;;;;4946343;28;20184;-87
2021/10/03 03:36:11;;;;;;;6.40;4.67;;;;;;;;;;4964301;28;20539;-87
2021/10/03 03:39:15;;;;;;;7.33;4.77;;;;;;;;;;4952043;28;20183;-87
2021/10/03 03:42:19;;;;;;;6.20;4.97;;;;;;;;;;4952159;28;20186;-87
2021/10/03 03:45:23;;;;;;;6.97;5.13;;;;;;;;;;4962349;28;20535;-86
2021/10/03 03:48:27;;;;;;;7.43;5.33;;;;;;;;;;4963211;28;20215;-86
2021/10/03 03:51:31;;;;;;;6.00;5.03;;;;;;;;;;4975299;28;20186;-86
2021/10/03 03:54:35;;;;;;;7.00;5.70;;;;;;;;;;4963107;28;20215;-86
2021/10/03 03:57:40;;;;;;;7.20;5.23;;;;;;;;;;4954709;29;20203;-86
2021/10/03 04:00:43;;;;;;;6.13;5.00;;;;;;;;;;4939813;28;20190;-87
2021/10/03 04:03:47;;;;;;;6.03;4.97;;;;;;;;;;4966597;28;20218;-87
2021/10/03 04:06:52;;;;;;;6.40;5.37;;;;;;;;;;4961934;28;20195;-87
2021/10/03 04:09:56;;;;;;;7.07;4.90;;;;;;;;;;4962146;28;20226;-87
2021/10/03 04:13:00;;;;;;;6.03;4.77;;;;;;;;;;4955675;28;20199;-87
2021/10/03 04:16:04;;;;;;;7.27;5.20;;;;;;;;;;4943353;28;20194;-87
2021/10/03 04:19:08;;;;;;;5.87;4.90;;;;;;;;;;4977256;28;20194;-87
2021/10/03 04:22:12;;;;;;;5.87;5.27;;;;;;;;;;4978252;28;20642;-86
2021/10/03 04:25:16;;;;;;;6.37;4.93;;;;;;;;;;4946348;29;20231;-87
2021/10/03 04:28:21;;;;;;;6.73;5.03;;;;;;;;;;4935780;29;20184;-87
2021/10/03 04:31:25;;;;;;;6.73;5.50;;;;;;;;;;4951923;28;20191;-86
2021/10/03 04:34:30;;;;;;;7.43;5.70;;;;;;;;;;4965746;28;20218;-86
2021/10/03 04:37:34;;;;;;;6.67;5.63;;;;;;;;;;4966589;28;20191;-87
2021/10/03 04:40:38;;;;;;;8.67;5.30;;;;;;;;;;4977850;28;20187;-87
2021/10/03 04:43:44;;;;;;;11.03;4.77;;;;;;;;;;4954389;28;20551;-86
2021/10/03 04:46:48;;;;;;;7.20;5.67;;;;;;;;;;4965402;28;20194;-87
2021/10/03 04:49:54;;;;;;;5.90;4.80;;;;;;;;;;4953818;28;20211;-87
2021/10/03 04:52:59;;;;;;;8.17;4.90;;;;;;;;;;4976316;28;20187;-87
2021/10/03 04:56:03;;;;;;;7.27;5.20;;;;;;;;;;4954908;28;20535;-87
2021/10/03 04:59:07;;;;;;;6.60;5.20;;;;;;;;;;4965004;28;20198;-86
2021/10/03 05:02:11;;;;;;;8.47;5.40;;;;;;;;;;4949173;28;20662;-87
2021/10/03 05:05:15;;;;;;;6.10;5.23;;;;;;;;;;4934940;29;20231;-86
2021/10/03 05:08:20;;;;;;;6.07;5.23;;;;;;;;;;4949667;28;20203;-87
2021/10/03 05:11:25;;;;;;;6.63;5.27;;;;;;;;;;4956287;28;20198;-87
2021/10/03 05:14:29;;;;;;;8.70;5.23;;;;;;;;;;4950978;28;20214;-86
2021/10/03 05:17:33;;;;;;;6.63;5.07;;;;;;;;;;4951483;28;20207;-87
2021/10/03 05:20:37;;;;;;;7.47;5.70;;;;;;;;;;4960942;28;20199;-87
2021/10/03 05:23:42;;;;;;;8.03;5.67;;;;;;;;;;4960223;28;20219;-87
2021/10/03 05:26:46;;;;;;;7.67;5.60;;;;;;;;;;4962231;28;20524;-88
2021/10/03 05:29:50;;;;;;;9.13;5.47;;;;;;;;;;4954731;28;20218;-87
2021/10/03 05:32:54;;;;;;;8.43;5.27;;;;;;;;;;4978061;28;20206;-88
2021/10/03 05:35:59;;;;;;;10.43;6.07;;;;;;;;;;4973276;28;20191;-88
2021/10/03 05:39:03;;;;;;;8.40;6.07;;;;;;;;;;4956784;28;20195;-87
2021/10/03 05:42:07;;;;;;;8.40;6.30;;;;;;;;;;4959572;28;20192;-88
2021/10/03 05:45:11;;;;;;;7.20;5.53;;;;;;;;;;4947083;28;20227;-88
2021/10/03 05:48:16;;;;;;;10.73;5.90;;;;;;;;;;4958796;28;20187;-87
2021/10/03 05:51:20;;;;;;;8.43;6.33;;;;;;;;;;4953328;28;20206;-87
2021/10/03 05:54:25;;;;;;;9.87;6.07;;;;;;;;;;4963963;28;20222;-87
2021/10/03 05:57:29;;;;;;;10.13;6.43;;;;;;;;;;4950974;29;20667;-87
2021/10/03 06:00:33;;;;;;;9.27;6.10;;;;;;;;;;4935003;28;20175;-87
2021/10/03 06:03:37;;;;;;;11.47;6.73;;;;;;;;;;4945491;28;20222;-88
2021/10/03 06:06:41;;;;;;;10.60;6.37;;;;;;;;;;4961978;28;20194;-88
2021/10/03 06:09:45;;;;;;;7.37;6.23;;;;;;;;;;4952800;28;20230;-88
2021/10/03 06:12:50;;;;;;;7.13;5.80;;;;;;;;;;4964129;28;20653;-87
2021/10/03 06:15:55;;;;;;;9.10;6.17;;;;;;;;;;4974950;28;20190;-87
2021/10/03 06:18:58;;;;;;;7.57;5.43;;;;;;;;;;4960095;28;20183;-87
2021/10/03 06:22:03;;;;;;;8.57;5.67;;;;;;;;;;4955679;28;20207;-87
2021/10/03 06:25:07;;;;;;;6.80;5.60;;;;;;;;;;4955134;28;20559;-87
2021/10/03 06:28:11;;;;;;;7.37;5.37;;;;;;;;;;4943877;29;20203;-87
2021/10/03 06:31:15;;;;;;;6.50;4.93;;;;;;;;;;4947892;28;20199;-87
2021/10/03 06:34:19;;;;;;;6.00;5.00;;;;;;;;;;4960405;28;20222;-87
2021/10/03 06:37:23;;;;;;;7.40;5.17;;;;;;;;;;4946022;29;20195;-87
2021/10/03 06:40:28;;;;;;;6.83;4.80;;;;;;;;;;4944891;28;20523;-87
2021/10/03 06:43:35;;;;;;;5.63;4.60;;;;;;;;;;4952240;28;20222;-87
2021/10/03 06:46:39;;;;;;;8.27;5.83;;;;;;;;;;4963364;28;20183;-87
2021/10/03 06:49:43;;;;;;;7.73;5.13;;;;;;;;;;4963227;28;20674;-87
2021/10/03 06:52:48;;;;;;;8.20;5.43;;;;;;;;;;4957303;28;20206;-88
2021/10/03 06:55:53;;;;;;;6.13;4.97;;;;;;;;;;4962609;28;20194;-87
2021/10/03 06:58:57;;;;;;;7.10;4.40;;;;;;;;;;4970105;28;20203;-88
2021/10/03 07:02:07;;;;;;;7.17;4.93;;;;;;;;;;4950225;28;20191;-88
2021/10/03 07:05:13;;;;;;;6.43;5.17;;;;;;;;;;4973526;28;20231;-88
2021/10/03 07:08:16;;;;;;;5.80;5.10;;;;;;;;;;4963273;28;20258;-89
2021/10/03 07:11:21;;;;;;;5.17;4.63;;;;;;;;;;4952405;28;20183;-89
2021/10/03 07:14:25;;;;;;;9.67;4.90;;;;;;;;;;4962443;28;20230;-89
2021/10/03 07:17:29;;;;;;;7.40;4.60;;;;;;;;;;4962400;28;20191;-89
2021/10/03 07:20:33;;;;;;;4.80;3.87;;;;;;;;;;4952286;28;20183;-89
2021/10/03 07:23:38;;;;;;;4.33;3.93;;;;;;;;;;4962284;28;20218;-89
2021/10/03 07:26:44;;;;;;;8.93;4.00;;;;;;;;;;4951677;28;20186;-89
2021/10/03 07:29:48;;;;;;;6.67;3.90;;;;;;;;;;4951698;28;20222;-89
2021/10/03 07:32:52;;;;;;;7.17;3.70;;;;;;;;;;4962335;28;20658;-89
2021/10/03 07:35:56;;;;;;;4.53;3.87;;;;;;;;;;4965406;28;20191;-89
2021/10/03 07:39:02;;;;;;;4.73;3.20;;;;;;;;;;4976916;28;20198;-89
2021/10/03 07:42:07;;;;;;;4.47;3.30;;;;;;;;;;4958197;28;20191;-87
2021/10/03 07:45:11;;;;;;;5.60;3.10;;;;;;;;;;4945697;28;20227;-87
2021/10/03 07:48:16;;;;;;;4.80;2.93;;;;;;;;;;4955858;28;20202;-84
2021/10/03 07:51:20;;;;;;;4.17;2.87;;;;;;;;;;4957872;28;20211;-89
2021/10/03 07:54:24;;;;;;;6.07;2.90;;;;;;;;;;4951304;28;20653;-88
2021/10/03 07:57:29;;;;;;;4.20;2.80;;;;;;;;;;4950695;28;20187;-88
2021/10/03 08:00:35;;;;;;;2.57;2.27;;;;;;;;;;4962208;28;20638;-88
2021/10/03 08:03:39;;;;;;;4.73;2.77;;;;;;;;;;4964845;28;20223;-89
2021/10/03 08:06:44;;;;;;;4.53;3.00;;;;;;;;;;4951721;28;20211;-88
2021/10/03 08:09:48;;;;;;;2.80;2.47;;;;;;;;;;4962024;28;20226;-89
2021/10/03 08:12:53;;;;;;;3.80;2.73;;;;;;;;;;4960840;28;20519;-88
2021/10/03 08:15:58;;;;;;;4.73;2.80;;;;;;;;;;4961879;28;20191;-89
2021/10/03 08:19:03;;;;;;;3.60;2.93;;;;;;;;;;4962160;28;20198;-89
2021/10/03 08:22:08;;;;;;;3.50;2.43;;;;;;;;;;4952374;28;20175;-88
2021/10/03 08:25:14;;;;;;;6.30;2.73;;;;;;;;;;4964069;28;20222;-88
2021/10/03 08:32:41;;;;;;;9.53;2.60;;;;;;;;;;4973247;28;20535;-89
2021/10/03 08:40:12;;;;;;;3.80;2.33;;;;;;;;;;4958562;28;20199;-88
2021/10/03 08:43:19;;;;;;;4.53;2.90;;;;;;;;;;4960032;28;20223;-88
2021/10/03 08:46:27;;;;;;;2.83;2.40;;;;;;;;;;4955324;28;20182;-88
2021/10/03 08:54:44;;;;;;;6.07;2.40;;;;;;;;;;4973623;28;20602;-89
2021/10/03 08:58:40;;;;;;;3.93;2.60;;;;;;;;;;4948034;28;20192;-90
2021/10/03 09:07:52;;;;;;;3.10;2.23;;;;;;;;;;4985243;28;20175;-89
2021/10/03 09:11:24;;;;;;;7.13;2.27;;;;;;;;;;4957139;28;20223;-89
2021/10/03 09:14:37;;;;;;;4.40;2.47;;;;;;;;;;4976249;28;20230;-90
